Latest Weather Observations for Wellcamp Airport

IDQ60901

Issued at 1:01 am EST Monday 18 November 2019 (issued every 10 minutes, with the page automatically refreshed every 10 minutes)

About weather observations | Map of Brisbane area stations | Latest observations for Brisbane area | Other Formats
Station Details ID: 541150 Name: WELLCAMP AIRPORT Lat: -27.55 Lon: 151.78 Height: 436.98 m
Data from the previous 72 hours. | See also: Recent months for locations in Queensland
Date/Time
EST
Temp
°C
App
Temp
°C
Dew
Point
°C
Rel
Hum
%
Delta-T
°C
Wind Press
QNH
hPa
Press
MSL
hPa
Rain since
9am
mm
Dir  Spd
km/h
Gust
km/h
Spd
kts
Gust
kts
18/01:00am 19.9 17.6 13.1 65 3.9 ESE 17 32 9 17 1015.8 1013.8 0.0
18/12:30am 20.5 19.8 14.4 68 3.6 ESE 11 26 6 14 1016.1 1014.1 0.0
18/12:00am 21.2 20.7 14.8 67 3.8 SE 11 20 6 11 1016.1 1014.1 0.0
 
Date/Time
EST
Temp
°C
App
Temp
°C
Dew
Point
°C
Rel
Hum
%
Delta-T
°C
Wind Press
QNH
hPa
Press
MSL
hPa
Rain since
9am
mm
Dir  Spd
km/h
Gust
km/h
Spd
kts
Gust
kts
17/11:30pm 21.6 20.2 14.5 64 4.2 S 15 26 8 14 1016.1 1014.1 0.0
17/11:00pm 22.1 20.3 14.5 62 4.5 S 17 22 9 12 1016.3 1014.3 0.0
17/10:30pm 22.7 20.2 14.0 58 5.2 SSE 20 26 11 14 1016.0 1014.0 0.0
17/10:00pm 23.3 20.3 13.8 55 5.7 S 22 33 12 18 1015.6 1013.6 0.0
17/09:30pm 24.6 18.3 1.5 22 11.1 S 24 32 13 17 1015.5 1013.5 0.0
17/09:00pm 25.2 18.3 -2.4 16 12.4 SW 24 32 13 17 1014.5 1012.5 0.0
17/08:30pm 25.7 18.4 -2.8 15 12.8 SW 26 37 14 20 1014.2 1012.2 0.0
17/08:00pm 26.4 19.9 -2.3 15 13.1 SW 22 32 12 17 1013.9 1011.9 0.0
17/07:30pm 27.1 20.7 -1.7 15 13.3 SW 22 30 12 16 1013.7 1011.7 0.0
17/07:00pm 28.3 21.6 -0.8 15 13.8 SSW 24 35 13 19 1013.2 1011.1 0.0
17/06:30pm 29.3 21.1 -0.9 14 14.4 SW 32 44 17 24 1012.2 1010.2 0.0
17/06:00pm 30.8 22.1 -0.8 13 15.3 SW 35 48 19 26 1011.4 1009.4 0.0
17/05:30pm 32.0 22.9 -0.9 12 16.0 SW 37 57 20 31 1010.8 1008.7 0.0
17/05:25pm 32.0 22.9 -0.9 12 16.0 SW 37 57 20 31 1010.6 1008.5 0.0
17/05:00pm 32.8 22.8 -1.5 11 16.6 WSW 41 52 22 28 1010.0 1008.0 0.0
17/04:30pm 34.1 24.1 -1.8 10 17.5 WSW 41 59 22 32 1009.5 1007.5 0.0
17/04:16pm 34.1 23.9 -0.5 11 17.2 WSW 43 61 23 33 1009.3 1007.3 0.0
17/04:00pm 34.2 23.4 -0.4 11 17.3 WSW 46 57 25 31 1009.2 1007.1 0.0
17/03:30pm 35.4 27.2 0.5 11 17.8 WSW 33 52 18 28 1009.1 1007.0 0.0
17/03:16pm 35.4 27.2 0.5 11 17.8 WSW 33 59 18 32 1009.0 1006.9 0.0
17/03:10pm 35.0 25.3 0.2 11 17.6 W 41 59 22 32 1008.9 1006.8 0.0
17/03:00pm 36.0 26.5 -0.4 10 18.4 W 39 59 21 32 1008.9 1006.8 0.0
17/02:58pm 35.7 26.8 0.7 11 17.9 W 37 59 20 32 1008.9 1006.8 0.0
17/02:42pm 35.4 26.1 -2.3 9 18.3 W 37 56 20 30 1008.9 1006.8 0.0
17/02:35pm 35.9 26.4 -0.5 10 18.3 W 39 63 21 34 1008.9 1006.8 0.0
17/02:30pm 35.9 27.6 -0.5 10 18.3 WSW 33 63 18 34 1008.9 1006.8 0.0
17/02:00pm 35.8 26.5 0.8 11 18.0 W 39 57 21 31 1009.0 1006.9 0.0
17/01:53pm 35.9 26.8 2.1 12 17.7 W 39 57 21 31 1008.8 1006.7 0.0
17/01:52pm 35.8 27.1 2.0 12 17.7 WSW 37 54 20 29 1008.9 1006.8 0.0
17/01:45pm 36.1 28.8 2.2 12 17.8 W 30 52 16 28 1008.9 1006.8 0.0
17/01:41pm 36.0 28.9 3.3 13 17.5 W 30 50 16 27 1009.0 1006.9 0.0
17/01:30pm 35.6 27.8 3.0 13 17.3 WNW 33 50 18 27 1009.3 1007.3 0.0
17/01:24pm 35.5 27.0 2.9 13 17.2 W 37 57 20 31 1009.4 1007.4 0.0
17/01:00pm 35.2 27.0 4.7 15 16.6 W 37 56 20 30 1010.0 1008.0 0.0
17/12:55pm 34.5 28.4 5.0 16 16.0 W 26 56 14 30 1009.8 1007.8 0.0
17/12:30pm 32.9 27.0 7.7 21 14.2 WSW 28 43 15 23 1010.7 1008.6 0.0
17/12:21pm 34.0 28.2 7.9 20 14.8 WNW 28 46 15 25 1010.9 1008.8 0.0
17/12:00pm 34.7 28.8 7.7 19 15.3 WNW 28 41 15 22 1011.3 1009.2 0.0
17/11:37am 34.3 30.0 10.8 24 14.0 NW 24 46 13 25 1011.8 1009.8 0.0
17/11:30am 33.7 30.4 12.7 28 12.8 WNW 22 39 12 21 1012.0 1010.0 0.0
17/11:00am 31.6 28.9 13.4 33 11.1 WNW 20 32 11 17 1012.5 1010.5 0.0
17/10:30am 31.1 28.5 13.8 34 10.6 WNW 20 33 11 18 1013.1 1011.0 0.0
17/10:00am 30.6 28.4 14.3 37 10.1 NNW 19 32 10 17 1013.5 1011.5 0.0
17/09:30am 29.8 28.2 15.1 40 9.2 NNW 17 37 9 20 1013.8 1011.8 0.0
17/09:00am 27.7 27.2 16.0 49 7.3 NNW 13 22 7 12 1014.1 1012.1 0.0
17/08:30am 27.1 26.7 16.1 51 6.9 NNW 13 22 7 12 1014.5 1012.5 0.0
17/08:00am 25.9 26.0 16.5 56 5.9 NNW 11 19 6 10 1014.9 1012.9 0.0
17/07:30am 24.5 24.2 16.5 61 5.0 NNE 13 20 7 11 1015.2 1013.1 0.0
17/07:00am 23.2 23.3 16.5 66 4.2 NNE 11 24 6 13 1015.2 1013.1 0.0
17/06:30am 21.8 21.3 15.9 69 3.6 ENE 13 19 7 10 1014.9 1012.9 0.0
17/06:00am 20.7 21.8 15.5 72 3.1 E 4 7 2 4 1014.8 1012.8 0.0
17/05:30am 19.0 20.2 14.9 77 2.4 NW 2 4 1 2 1014.6 1012.6 0.0
17/05:00am 18.9 19.2 14.6 76 2.5 E 6 9 3 5 1014.4 1012.4 0.0
17/04:30am 19.2 19.4 14.7 75 2.7 E 7 11 4 6 1014.2 1012.2 0.0
17/04:00am 19.7 19.6 14.9 74 2.9 E 9 15 5 8 1014.0 1012.0 0.0
17/03:30am 20.0 20.6 15.2 74 2.9 SE 6 7 3 4 1013.8 1011.8 0.0
17/03:00am 20.2 20.4 14.8 71 3.2 SE 7 11 4 6 1013.8 1011.8 0.0
17/02:30am 20.4 21.2 14.7 70 3.4 NNE 4 7 2 4 1013.9 1011.9 0.0
17/02:00am 20.8 19.5 14.9 69 3.5 E 15 22 8 12 1013.7 1011.7 0.0
17/01:30am 21.2 20.3 14.8 67 3.8 E 13 20 7 11 1013.7 1011.7 0.0
17/01:00am 21.5 22.4 16.0 71 3.4 SE 6 7 3 4 1014.0 1012.0 0.0
17/12:30am 22.2 23.1 16.7 71 3.4 E 7 17 4 9 1014.1 1012.1 0.0
17/12:00am 22.6 22.6 16.2 67 3.9 ESE 11 19 6 10 1014.3 1012.3 0.0
 
Date/Time
EST
Temp
°C
App
Temp
°C
Dew
Point
°C
Rel
Hum
%
Delta-T
°C
Wind Press
QNH
hPa
Press
MSL
hPa
Rain since
9am
mm
Dir  Spd
km/h
Gust
km/h
Spd
kts
Gust
kts
16/11:30pm 23.0 23.2 15.8 64 4.4 E 9 19 5 10 1014.7 1012.7 0.0
16/11:00pm 23.6 22.6 15.6 61 4.9 ESE 15 26 8 14 1014.7 1012.7 0.0
16/10:30pm 24.0 20.7 15.0 57 5.5 E 26 35 14 19 1014.2 1012.2 0.0
16/10:00pm 24.5 19.8 14.9 55 5.8 E 33 46 18 25 1014.1 1012.1 0.0
16/09:30pm 25.2 19.4 14.0 49 6.7 E 37 50 20 27 1013.8 1011.8 0.0
16/09:00pm 25.9 20.3 14.4 49 7.0 E 37 48 20 26 1013.5 1011.5 0.0
16/08:30pm 26.8 22.1 14.9 48 7.3 E 33 43 18 23 1013.3 1011.2 0.0
16/08:08pm 27.6 24.0 15.3 47 7.6 E 28 46 15 25 1013.2 1011.1 0.0
16/08:00pm 28.7 23.5 14.5 42 8.7 E 35 52 19 28 1012.8 1010.7 0.0
16/07:52pm 29.3 25.0 13.1 37 9.8 ESE 28 52 15 28 1012.3 1010.3 0.0
16/07:30pm 28.7 23.9 -2.4 13 14.4 SSE 13 15 7 8 1012.4 1010.4 0.0
16/07:00pm 29.6 24.5 -1.7 13 14.8 SSW 15 19 8 10 1011.9 1009.9 0.0
16/06:30pm 31.2 25.4 -1.5 12 15.7 SW 19 26 10 14 1011.4 1009.4 0.0
16/06:00pm 33.4 27.1 -1.0 11 16.9 SW 22 30 12 16 1010.8 1008.7 0.0
16/05:30pm 34.5 29.1 -1.5 10 17.6 W 17 22 9 12 1010.5 1008.4 0.0
16/05:00pm 35.2 29.5 -1.0 10 18.0 WSW 19 32 10 17 1010.0 1008.0 0.0
16/04:30pm 35.9 29.1 0.9 11 18.0 WSW 26 44 14 24 1010.0 1008.0 0.0
16/04:00pm 35.7 30.4 1.9 12 17.6 WSW 19 32 10 17 1010.3 1008.2 0.0
16/03:30pm 36.2 31.7 2.3 12 17.8 WSW 15 32 8 17 1010.4 1008.3 0.0
16/03:00pm 36.1 31.2 2.2 12 17.8 WSW 17 41 9 22 1010.4 1008.3 0.0
16/02:30pm 34.7 30.2 4.3 15 16.4 WSW 17 41 9 22 1010.6 1008.5 0.0
16/02:00pm 35.4 31.0 4.8 15 16.7 SW 17 28 9 15 1011.2 1009.1 0.0
16/01:50pm 35.3 28.1 4.8 15 16.6 W 32 52 17 28 1011.5 1009.5 0.0
16/01:30pm 35.1 29.7 4.6 15 16.5 WSW 22 39 12 21 1011.7 1009.7 0.0
16/01:00pm 34.6 29.9 6.0 17 15.8 WNW 20 37 11 20 1012.4 1010.4 0.0
16/12:30pm 35.6 31.1 6.8 17 16.2 NNW 20 30 11 16 1013.0 1010.9 0.0
16/12:13pm 34.9 30.6 7.1 18 15.7 WNW 19 43 10 23 1013.3 1011.2 0.0
16/12:00pm 34.7 30.4 6.9 18 15.6 WNW 19 32 10 17 1013.5 1011.5 0.0
16/11:30am 33.2 30.2 7.9 21 14.3 WNW 13 32 7 17 1013.8 1011.8 0.0
16/11:00am 33.7 29.4 6.9 19 15.0 NNW 19 32 10 17 1014.3 1012.3 0.0
16/10:30am 33.4 29.5 8.8 22 14.1 NW 19 32 10 17 1014.5 1012.5 0.0
16/10:00am 31.3 27.7 8.3 24 13.0 NW 17 30 9 16 1014.9 1012.9 0.0
16/09:30am 31.1 26.9 8.2 24 12.9 NW 20 30 11 16 1015.2 1013.1 0.0
16/09:00am 29.4 26.9 11.0 32 10.7 WNW 15 28 8 15 1015.2 1013.1 0.0
16/08:30am 28.7 25.6 11.7 35 10.0 NW 19 24 10 13 1015.3 1013.2 0.0
16/08:00am 27.4 25.2 13.4 42 8.4 WNW 17 24 9 13 1015.5 1013.5 0.0
16/07:30am 25.5 24.2 13.7 48 7.1 NNW 13 20 7 11 1015.5 1013.5 0.0
16/07:00am 23.7 23.1 13.6 53 6.0 NNW 9 17 5 9 1015.3 1013.2 0.0
16/06:30am 20.7 20.6 10.8 53 5.5 NW 2 2 1 1 1015.2 1013.1 0.0
16/06:00am 16.8 14.7 3.8 42 6.2 SSW 4 6 2 3 1014.9 1012.9 0.0
16/05:30am 14.5 11.4 0.0 37 6.3 S 6 9 3 5 1014.6 1012.6 0.0
16/05:00am 12.4 8.4 -2.2 36 5.9 S 9 11 5 6 1014.3 1012.3 0.0
16/04:30am 13.3 10.3 -1.8 35 6.2 SSE 4 6 2 3 1014.2 1012.2 0.0
16/04:00am 14.2 11.0 -0.3 37 6.2 S 6 7 3 4 1014.1 1012.1 0.0
16/03:30am 14.8 11.6 0.6 38 6.2 SSE 7 9 4 5 1014.0 1012.0 0.0
16/03:00am 15.1 11.1 -1.9 31 7.1 S 9 9 5 5 1014.0 1012.0 0.0
16/02:30am 15.0 11.1 -4.3 26 7.6 S 7 9 4 5 1014.0 1012.0 0.0
16/02:00am 14.9 10.8 -6.6 22 8.1 S 7 9 4 5 1013.9 1011.9 0.0
16/01:30am 13.7 9.8 -7.0 23 7.6 SSE 6 7 3 4 1013.9 1011.9 0.0
16/01:00am 16.7 12.3 -6.3 20 8.9 SSE 9 13 5 7 1013.8 1011.8 0.0
16/12:30am 15.9 12.0 -6.4 21 8.5 S 6 6 3 3 1013.9 1011.9 0.0
16/12:00am 16.6 13.0 -7.1 19 9.0 SW 4 6 2 3 1013.9 1011.9 0.0
 
Date/Time
EST
Temp
°C
App
Temp
°C
Dew
Point
°C
Rel
Hum
%
Delta-T
°C
Wind Press
QNH
hPa
Press
MSL
hPa
Rain since
9am
mm
Dir  Spd
km/h
Gust
km/h
Spd
kts
Gust
kts
15/11:30pm 17.8 14.2 -7.5 17 9.6 SE 4 9 2 5 1014.2 1012.2 0.0
15/11:00pm 18.0 14.0 -5.9 19 9.4 NNW 7 9 4 5 1014.2 1012.2 0.0
15/10:30pm 18.0 13.4 -7.4 17 9.7 NW 9 15 5 8 1013.9 1011.9 0.0
15/10:00pm 19.8 14.9 -6.7 16 10.5 S 11 15 6 8 1013.7 1011.7 0.0
15/09:30pm 20.5 15.3 -6.1 16 10.7 SSE 13 15 7 8 1013.7 1011.7 0.0
15/09:00pm 21.9 17.1 -5.9 15 11.4 SSE 11 15 6 8 1013.4 1011.4 0.0
15/08:30pm 24.4 19.3 -4.8 14 12.5 SSE 13 15 7 8 1013.1 1011.0 0.0
15/08:00pm 23.9 18.7 -6.2 13 12.5 SSW 13 17 7 9 1012.8 1010.7 0.0
15/07:30pm 25.2 19.6 -6.2 12 13.2 SSW 15 17 8 9 1012.6 1010.6 0.0
15/07:00pm 26.3 21.2 -5.3 12 13.6 SW 13 17 7 9 1012.3 1010.3 0.0
15/06:30pm 29.0 22.7 -5.7 10 15.2 WSW 19 20 10 11 1011.8 1009.8 0.0
15/06:00pm 31.1 25.2 -5.5 9 16.4 WSW 17 22 9 12 1011.4 1009.4 0.0
15/05:30pm 32.5 26.2 -4.4 9 17.0 WSW 20 32 11 17 1010.9 1008.8 0.0
15/05:00pm 32.7 24.5 -4.3 9 17.1 W 30 41 16 22 1010.8 1008.7 0.0
15/04:30pm 33.3 24.6 -3.8 9 17.4 W 33 43 18 23 1010.6 1008.5 0.0
15/04:00pm 33.8 26.6 -5.0 8 17.9 W 24 41 13 22 1010.5 1008.4 0.0
15/03:30pm 34.1 26.2 -4.8 8 18.0 WNW 28 43 15 23 1010.7 1008.6 0.0
15/03:00pm 34.5 27.8 -4.5 8 18.2 WNW 22 41 12 22 1010.6 1008.5 0.0
15/02:42pm 34.3 26.6 -3.1 9 17.8 W 28 46 15 25 1010.8 1008.7 0.0
15/02:30pm 34.9 28.8 -2.6 9 18.1 WNW 20 35 11 19 1010.9 1008.8 0.0
15/02:23pm 34.3 27.0 -3.1 9 17.8 W 26 46 14 25 1011.1 1009.0 0.0
15/02:00pm 34.6 26.5 -2.9 9 18.0 NW 30 46 16 25 1011.4 1009.4 0.0
15/01:56pm 34.5 27.7 -1.5 10 17.6 NW 24 46 13 25 1011.3 1009.2 0.0
15/01:30pm 32.6 26.8 -1.7 11 16.5 W 19 37 10 20 1012.1 1010.1 0.0
15/01:00pm 32.4 26.9 -1.8 11 16.5 WNW 17 39 9 21 1012.5 1010.5 0.0
15/12:30pm 32.0 24.8 -2.1 11 16.3 WNW 26 43 14 23 1013.2 1011.1 0.0
15/12:00pm 32.4 26.0 -1.8 11 16.4 W 22 39 12 21 1013.4 1011.4 0.0
15/11:30am 31.7 25.7 -1.2 12 15.9 WNW 20 39 11 21 1013.9 1011.9 0.0
15/11:00am 31.3 25.6 -0.4 13 15.5 W 19 37 10 20 1014.4 1012.4 0.0
15/10:30am 29.8 23.7 0.4 15 14.4 WNW 22 32 12 17 1015.0 1013.0 0.0
15/10:00am 29.2 25.1 2.5 18 13.5 NW 13 28 7 15 1015.5 1013.5 0.0
15/09:30am 27.5 24.5 3.9 22 12.1 NW 9 20 5 11 1015.8 1013.8 0.0
15/09:00am 26.8 24.4 5.1 25 11.3 NW 7 15 4 8 1015.9 1013.9 0.0
15/08:30am 25.8 23.3 3.7 24 11.2 NW 6 9 3 5 1015.9 1013.9 0.0
15/08:00am 23.8 23.1 11.5 46 7.1 WNW 6 9 3 5 1015.9 1013.9 0.0
15/07:30am 21.8 22.1 13.4 59 4.9 NNW 4 7 2 4 1016.0 1014.0 0.0
15/07:00am 19.9 21.0 14.7 72 3.1 W 2 6 1 3 1015.9 1013.9 0.0
15/06:30am 17.3 16.9 13.0 76 2.5 SSE 7 9 4 5 1015.7 1013.7 0.0
15/06:00am 14.0 12.8 10.2 78 2.0 S 7 9 4 5 1015.4 1013.4 0.0
15/05:30am 12.2 10.7 9.2 82 1.5 S 7 9 4 5 1015.2 1013.1 0.0
15/05:00am 11.8 10.4 8.8 82 1.5 S 6 7 3 4 1014.8 1012.8 0.0
15/04:30am 10.5 8.7 7.0 79 1.7 SSW 6 7 3 4 1014.6 1012.6 0.0
15/04:00am 10.6 9.1 6.6 76 1.9 SSW 4 6 2 3 1014.3 1012.3 0.0
15/03:30am 11.0 8.9 6.0 71 2.4 SSW 6 6 3 3 1014.1 1012.1 0.0
15/03:00am 12.1 11.0 8.4 78 1.9 SSW 4 6 2 3 1014.2 1012.2 0.0
15/02:30am 14.5 14.0 12.2 86 1.3 SW 6 7 3 4 1014.2 1012.2 0.0
15/02:00am 14.2 14.5 12.1 87 1.2 SW 2 6 1 3 1014.3 1012.3 0.0
15/01:30am 14.2 13.8 11.0 81 1.7 SW 4 7 2 4 1014.3 1012.3 0.0

Latest Capital City Observations: Canberra | Sydney | Melbourne | Brisbane | Adelaide | Perth | Hobart | Darwin

Other formats

Comma delimited format used in spreadsheet applications
http://www.bom.gov.au/fwo/IDQ60901/IDQ60901.99435.axf

JavaScript Object Notation format (JSON) in row-major order
http://www.bom.gov.au/fwo/IDQ60901/IDQ60901.99435.json

Data quality

Most of these data are generated automatically and are frequently updated. Quality checks on data are not normally performed. It is possible for incorrect values to appear. Refer to information at About Latest Weather Observations and please check the disclaimer before using these data.